Franklin, ME (04634)

7:17 AM EST on February 22, 2017 (GMT -0500)
Georges Pond | | Change Station

Elev 177 ft 44.62 °N, 68.23 °W | Updated 4 seconds ago

Mostly Cloudy
Mostly Cloudy
31.3 °F
Feels Like 31 °F
N
0.0
Wind Variable Wind from South
Gusts 0.0 mph

Today
High -- | Low -- °F
--% Chance of Precip.
Yesterday
High -- | Low -- °F
Precip. -- in
Pressure 30.03 in
Visibility 10.0 miles
Clouds Overcast 6000 ft
Windchill 31 °F
Dew Point 28 °F
Humidity 88%
Rainfall 0.00 in
Snow Depth Not available.
6:21 AM 5:11 PM
Waning Crescent, 18% visible
METAR KBHB 221156Z AUTO 21005KT 10SM OVC060 02/00 A3001 RMK AO2 SLP168 T00170000 10017 21011 57007 FZRANO
Pressure 30.03 in
Visibility 10.0 miles
Clouds Overcast 6000 ft
Windchill 31 °F
Dew Point 28 °F
Humidity 88%
Rainfall 0.00 in
Snow Depth Not available.
6:21 AM 5:11 PM
Waning Crescent, 18% visible
METAR KBHB 221156Z AUTO 21005KT 10SM OVC060 02/00 A3001 RMK AO2 SLP168 T00170000 10017 21011 57007 FZRANO

Get Your Daily Forecast Email!

Thanks for signing up!

Be on the lookout for a verification email in your inbox.

You'll start receiving the daily forecast at 8 AM.

×

10-Day Weather Forecast

Almanac

Astronomy

Feb. 22, 2017 Rise Set
Actual Time
Civil Twilight
Nautical Twilight
Astronomical Twilight
Moon
Length of Visible Light
Length of Day
Tomorrow will be .
, % of the Moon is Illuminated

Today's Extremes

State Highs State Lows

Community

WunderPhotos

Upload Photos

1,962,540 photos uploaded!

WunderBlog® & News

Nearby

Air Quality

  Air Quality AQ Index Pollutant
Not available.

Snow Depth

Station Depth Elevation

Earthquake Activity

City Distance Mag. Time & Date
Minimum magnitude displayed is 2.5.

Coastal Water Temperatures

Place Temperature

Stations

Nearby Weather Stations

Station Location Temp. Windchill Dew Point Humidity Wind Precip. Elev Updated Type
                   

Watches & Warnings

There are currently no watches in effect.